Time;durP1;ratioP1;P1;durP2;ratioP2;P2;SDS_P1;SDS_P2;PMS_P1;PMS_P2;Temp;Humidity;BMP_temperature;BMP_pressure;BME280_temperature;BME280_humidity;BME280_pressure;Samples;Min_cycle;Max_cycle;Signal;HPM_P1;HPM_P2
2024/01/09 00:01:35;;;;;;;48.00;18.98;;;-9.50;85.60;;;;;;2603884;46;20076;31
2024/01/09 00:04:09;;;;;;;45.10;18.63;;;-9.50;84.30;;;;;;2585133;54;20816;31
2024/01/09 00:06:41;;;;;;;47.70;18.20;;;-9.50;79.20;;;;;;2585369;54;21774;31
2024/01/09 00:09:14;;;;;;;48.95;17.30;;;-9.50;84.10;;;;;;2603700;46;20242;31
2024/01/09 00:11:47;;;;;;;53.60;18.83;;;-9.60;87.40;;;;;;2603572;46;20943;31
2024/01/09 00:14:20;;;;;;;46.50;17.77;;;-9.60;83.80;;;;;;2585380;54;20239;31
2024/01/09 00:16:56;;;;;;;45.45;17.20;;;-9.60;87.00;;;;;;2585260;54;20026;31
2024/01/09 00:19:30;;;;;;;44.17;18.50;;;-9.60;86.80;;;;;;2585294;54;20036;31
2024/01/09 00:22:07;;;;;;;51.20;18.42;;;-9.70;86.40;;;;;;2585035;54;20065;31
2024/01/09 00:24:41;;;;;;;49.67;19.48;;;-9.70;88.80;;;;;;2754162;31;22549;31
2024/01/09 00:27:15;;;;;;;38.30;17.50;;;-9.80;88.10;;;;;;2585099;54;20859;31
2024/01/09 00:29:49;;;;;;;45.70;19.45;;;-9.80;90.40;;;;;;2585365;54;20085;31
2024/01/09 00:32:26;;;;;;;47.50;17.60;;;-9.90;91.30;;;;;;2585222;54;20056;31
2024/01/09 00:35:01;;;;;;;46.05;18.35;;;-9.90;90.80;;;;;;2585333;54;20855;31
2024/01/09 00:37:33;;;;;;;49.25;19.73;;;-9.80;90.40;;;;;;2603761;46;20082;31
2024/01/09 00:40:09;;;;;;;45.50;19.17;;;-9.80;90.00;;;;;;2585047;54;20987;31
2024/01/09 00:42:45;;;;;;;44.63;18.67;;;-9.90;90.60;;;;;;2603709;46;20867;31
2024/01/09 00:45:19;;;;;;;43.58;17.77;;;-9.90;92.00;;;;;;2584916;54;21004;31
2024/01/09 00:47:55;;;;;;;50.90;20.58;;;-9.90;92.50;;;;;;2585033;54;20034;31
2024/01/09 00:50:28;;;;;;;53.22;20.83;;;-9.90;91.60;;;;;;2585048;54;20891;31
2024/01/09 00:53:02;;;;;;;61.47;20.17;;;-9.90;91.20;;;;;;2585213;54;20923;31
2024/01/09 00:55:35;;;;;;;46.93;19.40;;;-9.90;91.50;;;;;;2584838;54;21009;31
2024/01/09 00:58:08;;;;;;;48.30;18.30;;;-9.90;90.40;;;;;;2585300;54;20045;31
2024/01/09 01:00:42;;;;;;;47.15;19.65;;;-9.90;89.30;;;;;;2585086;54;20999;31
2024/01/09 01:03:18;;;;;;;48.10;18.87;;;-9.90;89.80;;;;;;2603506;46;20144;31
2024/01/09 01:05:52;;;;;;;52.45;20.77;;;-10.00;90.00;;;;;;2603585;46;20033;31
2024/01/09 01:08:25;;;;;;;46.40;19.70;;;-10.00;87.80;;;;;;2602843;46;20939;31
2024/01/09 01:10:59;;;;;;;46.25;18.98;;;-10.00;86.00;;;;;;2585340;54;20959;31
2024/01/09 01:13:33;;;;;;;53.08;18.42;;;-10.00;87.20;;;;;;2585107;54;20812;31
2024/01/09 01:16:08;;;;;;;49.03;20.13;;;-10.00;87.70;;;;;;2584911;54;20730;31
2024/01/09 01:18:43;;;;;;;50.85;19.75;;;-10.00;87.70;;;;;;2585189;54;21148;31
2024/01/09 01:21:18;;;;;;;58.97;19.90;;;-10.00;89.40;;;;;;2603029;46;20803;31
2024/01/09 01:23:53;;;;;;;56.03;19.87;;;-10.00;89.10;;;;;;2585164;54;20108;31
2024/01/09 01:26:26;;;;;;;51.33;20.00;;;-10.00;87.50;;;;;;2603797;46;20822;31
2024/01/09 01:29:00;;;;;;;59.30;19.83;;;-10.00;90.00;;;;;;2584785;54;20030;31
2024/01/09 01:31:33;;;;;;;48.00;17.98;;;-10.00;84.90;;;;;;2682998;39;20890;31
2024/01/09 01:34:10;;;;;;;46.63;22.48;;;-10.10;84.10;;;;;;2585014;54;20103;31
2024/01/09 01:36:43;;;;;;;48.00;20.58;;;-10.10;81.70;;;;;;2585188;54;20979;31
2024/01/09 01:39:17;;;;;;;50.50;20.33;;;-10.10;84.10;;;;;;2603327;46;20909;31
2024/01/09 01:41:51;;;;;;;53.40;20.30;;;-10.10;78.20;;;;;;2584945;54;20033;31
2024/01/09 01:44:24;;;;;;;83.43;30.45;;;-10.10;76.30;;;;;;2585253;54;20038;31
2024/01/09 01:46:57;;;;;;;56.70;23.97;;;-10.10;82.10;;;;;;2584964;54;20027;31
2024/01/09 01:49:34;;;;;;;58.88;22.92;;;-10.20;79.80;;;;;;2584654;54;20300;31
2024/01/09 01:52:08;;;;;;;70.75;24.85;;;-10.10;77.60;;;;;;2603095;47;20904;31
2024/01/09 01:54:42;;;;;;;59.40;24.43;;;-10.20;81.30;;;;;;2603550;47;20086;31
2024/01/09 01:57:14;;;;;;;51.30;20.70;;;-10.20;82.10;;;;;;2584866;54;21139;31
2024/01/09 01:59:48;;;;;;;65.23;21.00;;;-10.20;81.30;;;;;;2584880;54;20849;31
2024/01/09 02:02:21;;;;;;;57.05;21.90;;;-10.20;76.30;;;;;;2585751;54;20085;31
2024/01/09 02:04:57;;;;;;;60.00;19.20;;;-10.20;77.70;;;;;;2603873;46;20057;31
2024/01/09 02:07:31;;;;;;;59.80;23.45;;;-10.30;76.90;;;;;;2603785;46;21028;31
2024/01/09 02:10:05;;;;;;;74.15;26.75;;;-10.30;78.10;;;;;;2585464;54;20037;31
2024/01/09 02:12:40;;;;;;;72.55;26.88;;;-10.30;77.90;;;;;;2585629;54;20135;31
2024/01/09 02:15:12;;;;;;;61.35;23.90;;;-10.30;76.30;;;;;;2585449;54;20891;31
2024/01/09 02:17:46;;;;;;;52.15;21.20;;;-10.40;75.90;;;;;;2585484;54;20105;31
2024/01/09 02:20:26;;;;;;;68.15;25.40;;;-10.40;77.50;;;;;;2585650;54;20030;31
2024/01/09 02:22:58;;;;;;;68.80;23.80;;;-10.40;86.40;;;;;;2585664;54;20081;31
2024/01/09 02:25:31;;;;;;;62.95;24.55;;;-10.40;88.20;;;;;;2585700;54;20034;31
2024/01/09 02:28:09;;;;;;;58.13;22.33;;;-10.40;90.90;;;;;;2585760;54;20030;31
2024/01/09 02:30:46;;;;;;;46.78;20.83;;;-10.40;92.00;;;;;;2585495;54;20081;31
2024/01/09 02:33:20;;;;;;;44.00;17.60;;;-10.40;92.20;;;;;;2585342;54;20915;31
2024/01/09 02:35:52;;;;;;;47.33;18.60;;;-10.50;94.10;;;;;;2585361;54;20060;31
2024/01/09 02:38:26;;;;;;;54.43;21.33;;;-10.40;94.70;;;;;;2585338;54;20897;31
2024/01/09 02:40:59;;;;;;;58.72;19.90;;;-10.50;94.50;;;;;;2585706;54;20230;31
2024/01/09 02:43:33;;;;;;;52.15;21.23;;;-10.50;93.80;;;;;;2585302;54;20038;31
2024/01/09 02:46:09;;;;;;;43.38;18.30;;;-10.50;94.30;;;;;;2585643;54;21722;31
2024/01/09 02:48:41;;;;;;;42.78;19.17;;;-10.50;94.20;;;;;;2683221;39;22299;31
2024/01/09 02:51:14;;;;;;;49.13;18.55;;;-10.50;94.50;;;;;;2585310;54;21000;31
2024/01/09 02:53:48;;;;;;;49.00;18.75;;;-10.50;93.40;;;;;;2585467;54;20104;31
2024/01/09 02:56:22;;;;;;;40.70;18.55;;;-10.60;94.20;;;;;;2585664;54;20059;31
2024/01/09 02:58:55;;;;;;;52.28;20.67;;;-10.60;95.30;;;;;;2585460;54;20937;31
2024/01/09 03:01:32;;;;;;;42.45;18.10;;;-10.60;94.90;;;;;;2585407;54;20050;31
2024/01/09 03:04:04;;;;;;;39.58;16.30;;;-10.60;95.30;;;;;;2585171;54;20149;31
2024/01/09 03:06:37;;;;;;;42.15;19.55;;;-10.60;95.90;;;;;;2585282;54;20027;31
2024/01/09 03:09:11;;;;;;;44.97;18.73;;;-10.60;95.50;;;;;;2764618;31;20070;31
2024/01/09 03:11:43;;;;;;;45.47;18.57;;;-10.70;94.20;;;;;;2603369;46;21011;31
2024/01/09 03:14:17;;;;;;;37.60;18.70;;;-10.70;95.00;;;;;;2585360;54;20026;31
2024/01/09 03:16:52;;;;;;;44.27;19.13;;;-10.60;93.80;;;;;;2585478;54;20823;31
2024/01/09 03:19:26;;;;;;;50.17;20.20;;;-10.60;93.10;;;;;;2585102;54;20082;31
2024/01/09 03:21:59;;;;;;;48.60;20.50;;;-10.70;93.40;;;;;;2585361;54;20780;31
2024/01/09 03:24:33;;;;;;;47.42;20.30;;;-10.70;92.70;;;;;;2585725;54;21022;31
2024/01/09 03:27:08;;;;;;;58.78;20.05;;;-10.70;94.10;;;;;;2604005;46;20026;31
2024/01/09 03:29:40;;;;;;;45.80;17.80;;;-10.80;94.60;;;;;;2585259;54;20165;31
2024/01/09 03:32:16;;;;;;;41.23;19.13;;;-10.80;95.60;;;;;;2603683;46;21780;31
2024/01/09 03:34:50;;;;;;;46.10;17.45;;;-10.70;94.00;;;;;;2604063;46;21114;31
2024/01/09 03:37:24;;;;;;;44.90;19.07;;;-10.70;93.10;;;;;;2584959;54;20030;31
2024/01/09 03:39:58;;;;;;;50.10;18.52;;;-10.70;92.90;;;;;;2585374;54;19956;31
2024/01/09 03:42:31;;;;;;;44.25;17.25;;;-10.70;92.50;;;;;;2585312;54;20030;31
2024/01/09 03:45:06;;;;;;;43.35;17.10;;;-10.70;91.70;;;;;;2585179;54;20012;31
2024/01/09 03:47:43;;;;;;;44.17;17.90;;;-10.80;92.80;;;;;;2604075;46;20182;31
2024/01/09 03:50:18;;;;;;;47.57;20.27;;;-10.70;93.60;;;;;;2585161;54;20093;31
2024/01/09 03:52:50;;;;;;;43.97;19.77;;;-10.70;92.90;;;;;;2585388;54;20908;31
2024/01/09 03:55:25;;;;;;;51.25;20.70;;;-10.80;92.40;;;;;;2651435;39;20602;31
2024/01/09 03:57:59;;;;;;;48.05;20.65;;;-10.80;93.50;;;;;;2585147;54;21030;31
2024/01/09 04:00:33;;;;;;;54.17;20.08;;;-10.80;91.80;;;;;;2683261;39;22301;31
2024/01/09 04:03:09;;;;;;;52.70;19.80;;;-10.80;92.40;;;;;;2604191;46;19941;31
2024/01/09 04:05:43;;;;;;;58.53;21.17;;;-10.80;92.70;;;;;;2585226;54;20812;31
2024/01/09 04:08:16;;;;;;;47.95;19.30;;;-10.80;93.20;;;;;;2585184;54;21103;31
2024/01/09 04:10:49;;;;;;;40.88;17.23;;;-10.90;93.40;;;;;;2585388;54;20898;31
2024/01/09 04:13:23;;;;;;;53.40;19.40;;;-10.80;91.40;;;;;;2585034;54;21122;31
2024/01/09 04:15:56;;;;;;;49.10;19.00;;;-10.90;87.40;;;;;;2585245;54;20136;31
2024/01/09 04:18:33;;;;;;;49.10;19.53;;;-10.90;90.30;;;;;;2585064;54;20950;31
2024/01/09 04:21:07;;;;;;;48.38;20.17;;;-10.90;92.90;;;;;;2585488;54;20246;31
2024/01/09 04:23:41;;;;;;;48.75;18.00;;;-10.90;92.70;;;;;;2584839;54;20168;31
2024/01/09 04:26:14;;;;;;;45.75;18.35;;;-10.90;90.30;;;;;;2603768;46;19934;31
2024/01/09 04:28:47;;;;;;;47.60;19.40;;;-10.90;87.60;;;;;;2585012;54;20057;31
2024/01/09 04:31:21;;;;;;;44.25;18.23;;;-10.90;89.30;;;;;;2585062;54;20897;31
2024/01/09 04:33:58;;;;;;;46.10;18.75;;;-10.90;90.10;;;;;;2585100;54;20976;31
2024/01/09 04:36:32;;;;;;;42.70;18.13;;;-11.00;89.10;;;;;;2585218;54;19934;31
2024/01/09 04:39:06;;;;;;;50.15;19.20;;;-11.00;91.50;;;;;;2585149;54;20031;31
2024/01/09 04:41:40;;;;;;;55.50;19.47;;;-11.00;91.60;;;;;;2585005;54;20806;31
2024/01/09 04:44:13;;;;;;;43.28;17.27;;;-11.00;90.80;;;;;;2585228;54;20910;31
2024/01/09 04:46:46;;;;;;;47.78;17.95;;;-11.00;92.00;;;;;;2584954;54;20038;31
2024/01/09 04:49:23;;;;;;;51.00;19.17;;;-10.90;92.60;;;;;;2585118;54;20942;31
2024/01/09 04:51:56;;;;;;;47.45;18.55;;;-11.00;92.10;;;;;;2585158;54;20037;31
2024/01/09 04:54:30;;;;;;;46.50;18.80;;;-11.00;93.00;;;;;;2603600;46;20942;31
2024/01/09 04:57:05;;;;;;;42.92;17.85;;;-11.00;92.00;;;;;;2585034;54;21016;31
2024/01/09 04:59:38;;;;;;;40.65;16.42;;;-11.00;92.50;;;;;;2584941;54;20089;31
2024/01/09 05:02:12;;;;;;;43.03;18.02;;;-11.00;92.60;;;;;;2585188;54;20031;31
2024/01/09 05:04:48;;;;;;;45.13;16.88;;;-11.10;92.10;;;;;;2584954;54;20085;31
2024/01/09 05:07:22;;;;;;;45.55;18.40;;;-11.00;92.20;;;;;;2585084;54;20928;31
2024/01/09 05:09:56;;;;;;;50.97;20.92;;;-11.10;93.50;;;;;;2584947;54;20056;31
2024/01/09 05:12:30;;;;;;;43.60;18.85;;;-11.10;93.60;;;;;;2585061;54;20120;31
2024/01/09 05:15:04;;;;;;;53.25;22.05;;;-11.10;93.50;;;;;;2584819;54;21409;31
2024/01/09 05:17:38;;;;;;;51.70;20.20;;;-11.10;94.00;;;;;;2603623;46;20034;31
2024/01/09 05:20:14;;;;;;;45.77;18.30;;;-11.10;94.00;;;;;;2585072;54;20810;31
2024/01/09 05:22:47;;;;;;;;;;;-11.10;94.00;;;;;;2585118;54;20844;31
2024/01/09 05:25:19;;;;;;;51.17;18.87;;;-11.20;93.60;;;;;;2585004;54;20690;31
2024/01/09 05:27:53;;;;;;;47.75;19.85;;;-11.20;92.10;;;;;;2584851;54;21005;31
2024/01/09 05:30:27;;;;;;;45.77;19.20;;;-11.20;93.20;;;;;;2584760;54;20919;31
2024/01/09 05:33:00;;;;;;;46.63;18.25;;;-11.10;92.50;;;;;;2584889;54;20958;31
2024/01/09 05:35:36;;;;;;;52.65;19.02;;;-11.20;91.70;;;;;;2584862;54;20027;31
2024/01/09 05:38:10;;;;;;;57.50;21.55;;;-11.20;91.10;;;;;;2584758;54;20934;31
2024/01/09 05:40:51;;;;;;;47.30;19.48;;;-11.20;93.20;;;;;;2683070;39;20934;31
2024/01/09 05:43:25;;;;;;;44.75;17.20;;;-11.20;94.20;;;;;;2584933;54;20031;31
2024/01/09 05:45:59;;;;;;;48.30;20.17;;;-11.20;93.60;;;;;;2584755;54;20048;31
2024/01/09 05:48:33;;;;;;;44.07;18.60;;;-11.30;95.50;;;;;;2584664;54;20959;31
2024/01/09 05:51:09;;;;;;;43.47;18.70;;;-11.20;96.00;;;;;;2584739;54;21098;31
2024/01/09 05:53:41;;;;;;;49.10;20.10;;;-11.30;96.10;;;;;;2603253;47;20977;31
2024/01/09 05:56:16;;;;;;;43.15;20.17;;;-11.30;96.40;;;;;;2584712;54;20030;31
2024/01/09 05:58:49;;;;;;;59.35;21.73;;;-11.30;96.30;;;;;;2584967;54;20028;31
2024/01/09 06:01:21;;;;;;;62.90;25.80;;;-11.30;95.50;;;;;;2584803;54;20034;31
2024/01/09 06:03:54;;;;;;;63.73;25.37;;;-11.30;94.50;;;;;;2584761;54;20026;31
2024/01/09 06:06:31;;;;;;;81.87;37.00;;;-11.30;92.90;;;;;;2603645;47;20944;31
2024/01/09 06:09:05;;;;;;;106.13;52.70;;;-11.20;93.10;;;;;;2603442;47;21888;31
2024/01/09 06:11:39;;;;;;;85.50;35.17;;;-11.30;94.20;;;;;;2584785;54;20230;31
2024/01/09 06:14:12;;;;;;;65.70;33.43;;;-11.30;94.70;;;;;;2585057;54;20814;31
2024/01/09 06:16:46;;;;;;;81.27;35.30;;;-11.30;94.60;;;;;;2701270;39;21097;31
2024/01/09 06:19:19;;;;;;;75.50;33.65;;;-11.30;95.50;;;;;;2584686;54;19942;31
2024/01/09 06:21:55;;;;;;;69.70;30.10;;;-11.30;94.50;;;;;;2584696;54;20898;31
2024/01/09 06:24:27;;;;;;;54.97;26.23;;;-11.30;95.00;;;;;;2584574;54;20900;31
2024/01/09 06:27:01;;;;;;;57.55;29.30;;;-11.40;94.90;;;;;;2584871;54;20357;31
2024/01/09 06:29:35;;;;;;;64.97;26.75;;;-11.30;95.50;;;;;;2584550;54;20030;31
2024/01/09 06:32:09;;;;;;;59.45;26.10;;;-11.40;95.80;;;;;;2584922;54;19939;31
2024/01/09 06:34:41;;;;;;;55.95;24.30;;;-11.40;95.50;;;;;;2584631;54;20030;31
2024/01/09 06:37:17;;;;;;;55.00;21.27;;;-11.40;93.70;;;;;;2584585;54;20841;31
2024/01/09 06:39:48;;;;;;;68.25;22.77;;;-11.40;93.30;;;;;;2584581;54;20149;31
2024/01/09 06:42:20;;;;;;;104.57;39.40;;;-11.40;93.90;;;;;;2584882;54;20962;31
2024/01/09 06:44:53;;;;;;;68.57;29.20;;;-11.40;94.80;;;;;;2626051;31;20020;31
2024/01/09 06:47:26;;;;;;;59.95;21.98;;;-11.40;93.90;;;;;;2585182;54;20152;31
2024/01/09 06:49:59;;;;;;;50.42;20.60;;;-11.30;95.10;;;;;;2585438;54;20096;31
2024/01/09 06:52:35;;;;;;;70.78;24.70;;;-11.40;95.40;;;;;;2585362;54;20917;31
2024/01/09 06:55:08;;;;;;;;;;;-11.30;93.80;;;;;;2604083;46;20685;31
2024/01/09 06:57:42;;;;;;;76.00;29.80;;;-11.40;93.50;;;;;;2585437;54;20743;31
2024/01/09 07:00:18;;;;;;;67.90;27.40;;;-11.30;92.80;;;;;;2585470;54;20073;31
2024/01/09 07:02:51;;;;;;;53.10;20.75;;;-11.30;93.50;;;;;;2585264;54;20901;31
2024/01/09 07:05:26;;;;;;;53.25;23.20;;;-11.40;93.50;;;;;;2585355;54;20034;31
2024/01/09 07:08:03;;;;;;;109.75;48.85;;;-11.40;93.30;;;;;;2585517;54;20093;31
2024/01/09 07:10:37;;;;;;;90.50;39.08;;;-11.40;94.40;;;;;;2604136;46;20111;31
2024/01/09 07:13:11;;;;;;;73.83;35.40;;;-11.40;94.70;;;;;;2585340;54;20960;31
2024/01/09 07:15:46;;;;;;;60.95;27.05;;;-11.40;95.00;;;;;;2585324;54;20920;31
2024/01/09 07:18:18;;;;;;;53.85;23.25;;;-11.40;94.70;;;;;;2585519;54;20044;31
2024/01/09 07:20:51;;;;;;;52.87;22.00;;;-11.30;94.60;;;;;;2753942;31;20332;31
2024/01/09 07:23:27;;;;;;;70.47;23.00;;;-11.30;95.20;;;;;;2585440;54;20042;31
2024/01/09 07:26:01;;;;;;;;;;;-11.30;95.20;;;;;;2585629;54;20887;31
2024/01/09 07:28:33;;;;;;;55.40;23.00;;;-11.20;94.80;;;;;;2585389;54;19994;31
2024/01/09 07:31:09;;;;;;;49.50;21.05;;;-11.20;94.20;;;;;;2585083;54;20096;31
2024/01/09 07:33:42;;;;;;;61.50;22.70;;;-11.10;95.10;;;;;;2604033;46;20147;31
2024/01/09 07:36:16;;;;;;;67.27;20.93;;;-10.90;96.30;;;;;;2585600;54;20766;31
2024/01/09 07:38:53;;;;;;;65.47;26.77;;;-10.60;94.30;;;;;;2603868;46;20768;31
2024/01/09 07:41:26;;;;;;;60.35;24.45;;;-10.30;94.40;;;;;;2585303;54;21746;31
2024/01/09 07:44:00;;;;;;;62.25;24.67;;;-10.00;92.30;;;;;;2585121;54;20999;31
2024/01/09 07:46:34;;;;;;;56.85;23.35;;;-9.70;87.70;;;;;;2603958;46;19934;31
2024/01/09 07:49:11;;;;;;;57.35;22.75;;;-9.40;86.20;;;;;;2585279;54;20030;31
2024/01/09 07:51:44;;;;;;;63.75;26.08;;;-9.10;84.60;;;;;;2585579;54;20932;31
2024/01/09 07:54:19;;;;;;;66.05;25.60;;;-8.80;72.30;;;;;;2585469;54;19935;31
2024/01/09 07:56:54;;;;;;;77.43;27.85;;;-8.60;67.50;;;;;;2585233;54;20116;31
2024/01/09 07:59:28;;;;;;;76.73;29.27;;;-8.40;66.30;;;;;;2585295;54;20931;31
2024/01/09 08:02:01;;;;;;;64.20;26.30;;;-8.10;66.10;;;;;;2585571;54;21333;31
2024/01/09 08:04:37;;;;;;;64.15;26.20;;;-8.00;57.70;;;;;;2585343;54;19934;31
2024/01/09 08:07:11;;;;;;;60.60;23.60;;;-7.80;52.30;;;;;;2585482;54;20909;31
2024/01/09 08:09:47;;;;;;;65.50;27.58;;;-7.70;50.90;;;;;;2585311;54;20072;31
2024/01/09 08:12:21;;;;;;;58.30;23.70;;;-7.50;55.60;;;;;;2585262;54;20031;31
2024/01/09 08:14:55;;;;;;;60.30;23.80;;;-7.30;48.70;;;;;;2585088;54;20998;31
2024/01/09 08:17:28;;;;;;;54.00;20.75;;;-7.10;42.10;;;;;;2584998;54;21072;31
2024/01/09 08:20:03;;;;;;;54.40;21.85;;;-7.10;34.10;;;;;;2603350;46;20920;31
2024/01/09 08:22:37;;;;;;;50.60;22.55;;;-7.10;32.00;;;;;;2585162;54;20049;31
2024/01/09 08:25:13;;;;;;;65.10;22.60;;;-7.30;29.90;;;;;;2585286;54;20931;31
2024/01/09 08:27:48;;;;;;;57.63;22.80;;;-7.30;35.80;;;;;;2603803;46;20027;31
2024/01/09 08:30:23;;;;;;;49.93;19.63;;;-7.20;36.50;;;;;;2584638;54;20100;31
2024/01/09 08:32:58;;;;;;;65.03;21.90;;;-7.20;32.20;;;;;;2585239;54;20090;31
2024/01/09 08:35:33;;;;;;;50.10;22.33;;;-7.00;37.60;;;;;;2585277;54;20948;31
2024/01/09 08:38:06;;;;;;;46.63;19.73;;;-7.00;32.50;;;;;;2603568;46;20250;31
2024/01/09 08:40:43;;;;;;;51.55;22.15;;;-6.90;30.10;;;;;;2585227;54;20927;31
2024/01/09 08:43:18;;;;;;;49.25;19.70;;;-6.80;29.20;;;;;;2585416;54;20030;31
2024/01/09 08:45:52;;;;;;;61.63;22.15;;;-6.90;24.10;;;;;;2585135;54;20940;31
2024/01/09 08:48:30;;;;;;;57.90;24.20;;;-7.00;25.60;;;;;;2603332;46;20900;31
2024/01/09 08:51:03;;;;;;;54.83;22.37;;;-6.90;26.30;;;;;;2585558;54;20911;31
2024/01/09 08:53:45;;;;;;;65.90;27.30;;;-6.80;34.30;;;;;;2585084;54;20880;31
2024/01/09 08:56:21;;;;;;;57.43;20.43;;;-6.60;23.80;;;;;;2585128;54;20725;31
2024/01/09 08:58:56;;;;;;;58.08;21.65;;;-6.50;23.00;;;;;;2585102;54;20056;31
2024/01/09 09:01:30;;;;;;;56.95;23.45;;;-6.30;29.90;;;;;;2585287;54;20033;31
2024/01/09 09:04:04;;;;;;;50.58;20.77;;;-6.20;16.40;;;;;;2585359;54;20921;31
2024/01/09 09:06:38;;;;;;;49.40;21.45;;;-6.00;23.80;;;;;;2603704;46;20054;31
2024/01/09 09:09:12;;;;;;;52.67;21.13;;;-5.90;17.00;;;;;;2585097;54;20033;31
2024/01/09 09:11:48;;;;;;;51.53;21.00;;;-5.90;17.00;;;;;;2585284;54;20946;31
2024/01/09 09:14:23;;;;;;;51.75;19.70;;;-5.90;19.30;;;;;;2585295;54;20798;31
2024/01/09 09:16:56;;;;;;;59.60;22.17;;;-5.70;13.00;;;;;;2585390;54;20917;31
2024/01/09 09:19:31;;;;;;;45.22;19.20;;;-5.70;16.30;;;;;;2585269;54;20234;31
2024/01/09 09:22:06;;;;;;;53.65;19.50;;;-5.80;1.00;;;;;;2585144;54;20026;31
2024/01/09 09:24:39;;;;;;;51.72;18.83;;;-5.80;3.50;;;;;;2585205;54;20998;31
2024/01/09 09:27:14;;;;;;;50.65;19.95;;;-5.90;6.30;;;;;;2585346;54;20777;31
2024/01/09 09:29:48;;;;;;;47.10;18.90;;;-5.80;10.30;;;;;;2585124;54;20052;31
2024/01/09 09:32:21;;;;;;;48.85;19.25;;;-5.70;6.00;;;;;;2585077;54;20789;31
2024/01/09 09:34:54;;;;;;;40.07;17.10;;;-5.70;8.00;;;;;;2585082;54;20931;31
2024/01/09 09:37:26;;;;;;;52.10;20.63;;;-5.60;10.10;;;;;;2585474;54;20313;31
2024/01/09 09:40:02;;;;;;;53.00;19.20;;;-5.30;15.30;;;;;;2585261;54;20031;31
2024/01/09 09:42:38;;;;;;;55.13;20.33;;;-5.20;1.00;;;;;;2604105;46;20889;31
2024/01/09 09:45:13;;;;;;;46.53;17.30;;;-5.20;1.00;;;;;;2585005;54;20049;31
2024/01/09 09:47:47;;;;;;;44.35;17.75;;;-5.10;1.00;;;;;;2603523;47;20082;31
2024/01/09 09:50:20;;;;;;;49.35;18.85;;;-5.10;1.00;;;;;;2604078;47;22211;31
2024/01/09 09:52:53;;;;;;;41.90;17.17;;;-5.10;1.00;;;;;;2585228;54;20818;31
2024/01/09 09:55:23;;;;;;;44.90;18.40;;;-5.10;1.00;;;;;;2604009;47;20026;31
2024/01/09 09:58:00;;;;;;;46.42;18.85;;;-5.00;1.00;;;;;;2585207;54;20048;31
2024/01/09 10:00:35;;;;;;;44.17;18.47;;;-5.00;1.00;;;;;;2584966;54;21021;31
2024/01/09 10:03:09;;;;;;;53.55;19.00;;;-5.00;1.00;;;;;;2585003;54;20901;31
2024/01/09 10:05:43;;;;;;;46.05;16.95;;;-5.00;1.00;;;;;;2603729;47;20134;31
2024/01/09 10:08:20;;;;;;;39.80;18.08;;;-5.00;4.20;;;;;;2585278;54;20067;31
2024/01/09 10:10:55;;;;;;;49.28;18.38;;;-4.90;1.40;;;;;;2585144;54;21000;31
2024/01/09 10:13:35;;;;;;;46.85;18.05;;;-4.70;9.20;;;;;;2602966;47;20840;31
2024/01/09 10:16:10;;;;;;;44.00;18.10;;;-4.80;1.00;;;;;;2701755;39;22136;31
2024/01/09 10:18:47;;;;;;;48.30;19.67;;;-4.90;1.00;;;;;;2603873;47;20917;31
2024/01/09 10:21:26;;;;;;;;;;;-4.80;1.00;;;;;;2585153;54;20053;31
2024/01/09 10:36:27;;;;;;;47.27;19.17;;;-5.10;1.00;;;;;;2602504;46;20023;31
2024/01/09 10:45:29;;;;;;;50.45;19.80;;;-5.10;2.80;;;;;;2585229;54;20145;31
2024/01/09 10:54:30;;;;;;;44.60;16.93;;;-5.10;1.00;;;;;;2585601;54;20089;31
2024/01/09 10:57:14;;;;;;;40.65;17.55;;;-5.20;1.00;;;;;;2585621;54;21362;31
2024/01/09 10:59:49;;;;;;;43.83;16.52;;;-5.30;1.00;;;;;;2585612;54;19934;31
2024/01/09 11:02:27;;;;;;;40.97;16.23;;;-5.40;1.00;;;;;;2585719;54;20926;31
2024/01/09 11:05:06;;;;;;;36.50;15.75;;;-5.50;1.00;;;;;;2585516;54;20873;31
2024/01/09 11:07:43;;;;;;;39.55;14.90;;;-5.50;1.00;;;;;;2585275;54;20090;31
2024/01/09 11:10:19;;;;;;;39.45;16.50;;;-5.60;1.00;;;;;;2603650;46;21557;31
2024/01/09 11:12:59;;;;;;;42.03;16.00;;;-5.60;6.20;;;;;;2584744;54;20875;31
2024/01/09 11:15:36;;;;;;;40.90;15.73;;;-5.60;5.60;;;;;;2604033;46;21016;31
2024/01/09 11:18:13;;;;;;;37.15;15.60;;;-5.70;4.30;;;;;;2603888;46;20048;31
2024/01/09 11:21:02;;;;;;;40.08;14.07;;;-5.70;7.90;;;;;;2602803;46;20180;31
2024/01/09 11:23:56;;;;;;;48.83;16.98;;;-5.70;1.00;;;;;;2603175;46;20025;31
2024/01/09 11:26:32;;;;;;;35.07;13.27;;;-5.80;1.00;;;;;;2585793;54;20109;31
2024/01/09 11:29:07;;;;;;;32.70;13.40;;;-6.00;1.00;;;;;;2585852;54;20824;31
2024/01/09 11:31:42;;;;;;;40.10;15.65;;;-6.10;1.00;;;;;;2603637;46;21129;31
2024/01/09 11:34:15;;;;;;;32.60;14.50;;;-6.30;1.00;;;;;;2603898;47;20920;31
2024/01/09 11:36:48;;;;;;;42.75;15.65;;;-6.40;4.50;;;;;;2604264;46;20030;31
2024/01/09 11:42:23;;;;;;;27.65;13.65;;;-6.50;7.80;;;;;;2586471;54;20063;31
2024/01/09 11:45:00;;;;;;;34.10;14.27;;;-6.50;7.20;;;;;;2585642;54;20085;31
2024/01/09 11:47:33;;;;;;;50.67;17.90;;;-6.60;12.00;;;;;;2603925;46;21111;31
2024/01/09 11:50:08;;;;;;;30.08;13.70;;;-6.60;14.10;;;;;;2585585;54;20938;31
2024/01/09 11:52:42;;;;;;;42.65;15.88;;;-6.60;13.20;;;;;;2585479;54;20925;31
2024/01/09 11:55:18;;;;;;;70.80;24.10;;;-6.60;15.80;;;;;;2585612;54;20031;31
2024/01/09 11:57:53;;;;;;;67.30;24.10;;;-6.60;11.80;;;;;;2585909;54;20242;31
2024/01/09 12:00:28;;;;;;;54.77;19.37;;;-6.60;11.60;;;;;;2683537;39;22394;31
2024/01/09 12:03:03;;;;;;;51.85;20.05;;;-6.60;13.70;;;;;;2585618;54;19957;31
2024/01/09 12:05:37;;;;;;;45.70;17.40;;;-6.70;14.20;;;;;;2603978;46;21008;31
2024/01/09 12:08:12;;;;;;;40.37;14.73;;;-6.70;18.10;;;;;;2604111;46;20960;31
2024/01/09 12:10:47;;;;;;;73.15;28.95;;;-6.70;16.60;;;;;;2585389;54;20031;31
2024/01/09 12:13:25;;;;;;;33.70;15.85;;;-6.70;17.40;;;;;;2585454;54;19941;31
2024/01/09 12:16:00;;;;;;;33.00;14.80;;;-6.70;17.10;;;;;;2585594;54;21240;31
2024/01/09 12:18:33;;;;;;;;;;;-6.70;17.10;;;;;;2683970;39;21116;31
2024/01/09 12:21:06;;;;;;;41.30;14.80;;;-6.70;15.60;;;;;;2585726;54;22311;31
2024/01/09 12:23:41;;;;;;;32.30;14.15;;;-6.70;17.40;;;;;;2585363;54;20089;31
2024/01/09 12:26:33;;;;;;;32.60;14.90;;;-6.70;20.10;;;;;;2603965;46;20946;31
2024/01/09 12:29:07;;;;;;;38.35;13.63;;;-6.70;16.90;;;;;;2585741;54;20841;31
2024/01/09 12:31:42;;;;;;;37.00;15.30;;;-6.60;15.70;;;;;;2604026;46;20052;31
2024/01/09 12:34:16;;;;;;;43.25;16.58;;;-6.60;18.40;;;;;;2585462;54;20030;31
2024/01/09 12:36:50;;;;;;;39.25;16.20;;;-6.60;22.50;;;;;;2585519;54;20069;31
2024/01/09 12:39:23;;;;;;;39.38;14.80;;;-6.60;23.80;;;;;;2585351;54;20925;31
2024/01/09 12:42:10;;;;;;;38.10;15.60;;;-6.50;24.20;;;;;;2604029;46;20022;31
2024/01/09 12:44:42;;;;;;;40.67;15.98;;;-6.50;19.80;;;;;;2585169;54;20081;31
2024/01/09 12:47:20;;;;;;;32.78;13.93;;;-6.40;20.00;;;;;;2585598;54;21015;31
2024/01/09 12:49:53;;;;;;;36.17;15.67;;;-6.50;18.40;;;;;;2585530;54;20030;31
2024/01/09 12:52:38;;;;;;;33.65;13.85;;;-6.50;17.40;;;;;;2603896;46;20828;31
2024/01/09 12:55:13;;;;;;;26.08;11.00;;;-6.50;18.70;;;;;;2585454;54;20052;31
2024/01/09 12:57:47;;;;;;;35.00;11.60;;;-6.40;14.80;;;;;;2585362;54;20030;31
2024/01/09 13:00:23;;;;;;;;;;;-6.40;2.30;;;;;;2585477;54;20983;31
2024/01/09 13:02:58;;;;;;;25.30;11.80;;;-6.40;4.40;;;;;;2585670;54;21073;31
2024/01/09 13:05:32;;;;;;;27.87;10.33;;;-6.40;5.20;;;;;;2585208;54;20996;31
2024/01/09 13:08:07;;;;;;;24.30;11.38;;;-6.40;7.90;;;;;;2604093;46;20056;31
2024/01/09 13:10:44;;;;;;;30.30;10.95;;;-6.40;9.20;;;;;;2603688;46;20971;31
2024/01/09 13:13:18;;;;;;;34.85;12.40;;;-6.40;7.90;;;;;;2585423;54;20262;31
2024/01/09 13:15:53;;;;;;;30.25;11.90;;;-6.40;8.50;;;;;;2585456;54;20939;31
2024/01/09 13:18:28;;;;;;;27.85;11.50;;;-6.40;11.90;;;;;;2603978;46;20034;31
2024/01/09 13:21:02;;;;;;;33.00;12.75;;;-6.30;12.70;;;;;;2585464;54;20034;31
2024/01/09 13:23:36;;;;;;;35.35;12.95;;;-6.30;14.40;;;;;;2585522;54;20030;31
2024/01/09 13:26:23;;;;;;;32.20;13.80;;;-6.30;14.90;;;;;;2585289;54;20107;31
2024/01/09 13:28:56;;;;;;;34.13;13.32;;;-6.30;15.50;;;;;;2585245;54;20030;31
2024/01/09 13:31:32;;;;;;;34.88;14.23;;;-6.20;19.10;;;;;;2585449;54;20038;31
2024/01/09 13:34:11;;;;;;;37.45;13.40;;;-6.20;18.70;;;;;;2585108;54;20030;31
2024/01/09 13:36:47;;;;;;;35.57;13.93;;;-6.20;20.20;;;;;;2754341;31;21171;31
2024/01/09 13:39:23;;;;;;;39.55;15.63;;;-6.20;21.70;;;;;;2603796;46;20933;31
2024/01/09 13:41:57;;;;;;;41.42;14.75;;;-6.20;24.40;;;;;;2585121;54;20880;31